createdAt,value
2019-01-15T00:02:06.147Z,8.97
2019-01-15T00:04:44.119Z,10.23
2019-01-15T00:07:13.950Z,8.67
2019-01-15T00:09:57.211Z,9.93
2019-01-15T00:12:26.888Z,9.77
2019-01-15T00:14:55.913Z,10.07
2019-01-15T00:17:24.927Z,9.50
2019-01-15T00:19:53.970Z,10.33
2019-01-15T00:22:33.407Z,11.03
2019-01-15T00:25:02.453Z,10.70
2019-01-15T00:27:31.486Z,10.73
2019-01-15T00:30:00.883Z,13.23
2019-01-15T00:32:36.570Z,10.23
2019-01-15T00:35:08.575Z,10.87
2019-01-15T00:37:39.434Z,9.30
2019-01-15T00:40:14.894Z,9.67
2019-01-15T00:42:44.291Z,9.30
2019-01-15T00:45:18.235Z,10.03
2019-01-15T00:47:47.404Z,9.20
2019-01-15T00:50:16.970Z,10.43
2019-01-15T00:52:46.876Z,11.30
2019-01-15T00:55:16.796Z,9.33
2019-01-15T00:57:48.031Z,9.40
2019-01-15T01:00:26.248Z,9.93
2019-01-15T01:02:55.359Z,10.13
2019-01-15T01:05:28.162Z,11.40
2019-01-15T01:07:58.903Z,10.17
2019-01-15T01:10:32.851Z,11.70
2019-01-15T01:13:10.255Z,11.50
2019-01-15T01:15:45.660Z,9.83
2019-01-15T01:18:16.919Z,9.60
2019-01-15T01:20:47.185Z,10.33
2019-01-15T01:23:38.119Z,9.10
2019-01-15T01:26:07.210Z,10.07
2019-01-15T01:28:38.677Z,10.37
2019-01-15T01:31:07.776Z,10.60
2019-01-15T01:33:41.788Z,9.43
2019-01-15T01:36:10.934Z,10.40
2019-01-15T01:38:43.687Z,9.30
2019-01-15T01:41:13.076Z,8.07
2019-01-15T01:43:42.124Z,8.93
2019-01-15T01:46:11.208Z,10.30
2019-01-15T01:48:41.804Z,9.63
2019-01-15T01:51:23.348Z,10.87
2019-01-15T01:53:52.407Z,9.10
2019-01-15T01:56:21.444Z,10.20
2019-01-15T01:58:51.694Z,9.83
2019-01-15T02:01:22.106Z,9.73
2019-01-15T02:03:51.189Z,10.73
2019-01-15T02:06:27.901Z,10.00
2019-01-15T02:08:56.963Z,10.67
2019-01-15T02:11:26.286Z,10.40
2019-01-15T02:13:56.870Z,9.07
2019-01-15T02:16:26.315Z,9.17
2019-01-15T02:18:59.681Z,8.57
2019-01-15T02:21:39.593Z,10.70
2019-01-15T02:24:10.049Z,10.50
2019-01-15T02:26:39.552Z,10.57
2019-01-15T02:29:13.935Z,9.90
2019-01-15T02:31:43.551Z,9.47
2019-01-15T02:34:12.682Z,10.30
2019-01-15T02:36:41.955Z,10.43
2019-01-15T02:39:12.790Z,8.53
2019-01-15T02:41:43.405Z,10.40
2019-01-15T02:44:12.426Z,10.10
2019-01-15T02:46:41.824Z,10.33
2019-01-15T02:49:10.862Z,9.83
2019-01-15T02:51:39.920Z,10.33
2019-01-15T02:54:09.757Z,9.60
2019-01-15T02:56:38.845Z,8.37
2019-01-15T02:59:08.210Z,8.60
2019-01-15T03:01:37.881Z,8.87
2019-01-15T03:04:06.909Z,8.37
2019-01-15T03:06:36.125Z,8.20
2019-01-15T03:09:08.432Z,6.60
2019-01-15T03:11:51.095Z,7.93
2019-01-15T03:14:20.103Z,7.17
2019-01-15T03:16:49.132Z,7.23
2019-01-15T03:19:18.178Z,7.50
2019-01-15T03:21:58.879Z,7.70
2019-01-15T03:24:28.624Z,8.13
2019-01-15T03:26:57.627Z,6.43
2019-01-15T03:29:29.599Z,8.07
2019-01-15T03:32:00.832Z,7.10
2019-01-15T03:34:30.387Z,7.40
2019-01-15T03:39:51.181Z,6.60
2019-01-15T03:42:25.489Z,6.40
2019-01-15T03:44:54.995Z,5.97
2019-01-15T03:47:26.091Z,5.87
2019-01-15T03:49:55.924Z,6.00
2019-01-15T03:52:24.969Z,5.10
2019-01-15T03:54:55.591Z,5.63
2019-01-15T03:57:29.568Z,5.70
2019-01-15T04:00:01.740Z,5.40
2019-01-15T04:02:30.945Z,5.30
2019-01-15T04:05:04.356Z,4.03
2019-01-15T04:07:33.749Z,3.37
2019-01-15T04:10:02.899Z,5.00
2019-01-15T04:12:36.402Z,2.67
2019-01-15T04:15:07.767Z,4.10
2019-01-15T04:17:39.255Z,3.37
2019-01-15T04:20:14.434Z,2.17
2019-01-15T04:22:43.441Z,2.90
2019-01-15T04:25:12.972Z,2.77
2019-01-15T04:27:44.384Z,2.67
2019-01-15T04:30:17.076Z,2.20
2019-01-15T04:32:46.629Z,2.67
2019-01-15T04:35:15.640Z,2.47
2019-01-15T04:37:45.201Z,2.50
2019-01-15T04:40:19.396Z,2.83
2019-01-15T04:42:48.836Z,2.20
2019-01-15T04:45:24.552Z,2.90
2019-01-15T04:47:53.884Z,2.23
2019-01-15T04:50:24.992Z,2.30
2019-01-15T04:52:59.272Z,2.30
2019-01-15T04:55:32.846Z,1.97
2019-01-15T04:58:14.732Z,1.93
2019-01-15T05:00:43.797Z,1.97
2019-01-15T05:03:13.402Z,2.33
2019-01-15T05:05:49.878Z,2.77
2019-01-15T05:08:24.119Z,1.50
2019-01-15T05:10:53.799Z,1.80
2019-01-15T05:13:31.273Z,2.87
2019-01-15T05:16:00.732Z,1.90
2019-01-15T05:18:37.413Z,1.60
2019-01-15T05:21:06.454Z,1.80
2019-01-15T05:23:37.424Z,2.10
2019-01-15T05:26:06.947Z,1.90
2019-01-15T05:28:40.029Z,2.07
2019-01-15T05:31:10.966Z,3.03
2019-01-15T05:33:42.660Z,2.50
2019-01-15T05:36:11.809Z,2.93
2019-01-15T05:38:41.337Z,2.40
2019-01-15T05:41:13.079Z,2.33
2019-01-15T05:43:43.665Z,2.30
2019-01-15T05:46:12.756Z,2.97
2019-01-15T05:48:41.796Z,2.40
2019-01-15T05:51:24.644Z,3.30
2019-01-15T05:53:53.716Z,2.50
2019-01-15T05:56:33.236Z,3.40
2019-01-15T05:59:13.138Z,3.47
2019-01-15T06:01:48.279Z,3.07
2019-01-15T06:04:17.671Z,2.90
2019-01-15T06:06:46.985Z,3.77
2019-01-15T06:09:17.009Z,3.60
2019-01-15T06:11:50.584Z,4.63
2019-01-15T06:14:21.552Z,3.00
2019-01-15T06:16:51.268Z,3.27
2019-01-15T06:19:20.788Z,4.10
2019-01-15T06:21:50.538Z,3.90
2019-01-15T06:24:26.850Z,5.17
2019-01-15T06:27:07.689Z,5.00
2019-01-15T06:29:37.082Z,4.43
2019-01-15T06:32:06.112Z,4.33
2019-01-15T06:34:35.536Z,4.97
2019-01-15T06:37:04.788Z,5.30
2019-01-15T06:39:35.192Z,5.17
2019-01-15T06:42:04.743Z,4.73
2019-01-15T06:44:34.590Z,5.43
2019-01-15T06:47:05.275Z,5.13
2019-01-15T06:49:38.733Z,6.13
2019-01-15T06:52:07.911Z,5.77
2019-01-15T06:54:37.162Z,6.13
2019-01-15T06:57:10.926Z,6.70
2019-01-15T06:59:40.426Z,7.50
2019-01-15T07:02:11.084Z,6.97
2019-01-15T07:04:48.529Z,6.77
2019-01-15T07:07:17.570Z,7.17
2019-01-15T07:09:46.620Z,7.63
2019-01-15T07:12:18.793Z,7.50
2019-01-15T07:14:49.057Z,8.17
2019-01-15T07:17:18.081Z,8.10
2019-01-15T07:19:47.214Z,7.87
2019-01-15T07:22:16.680Z,8.43
2019-01-15T07:24:45.693Z,10.63
2019-01-15T07:27:14.742Z,10.80
2019-01-15T07:29:50.613Z,8.70
2019-01-15T07:32:23.532Z,8.63
2019-01-15T07:34:52.974Z,10.43
2019-01-15T07:37:22.403Z,9.53
2019-01-15T07:39:51.895Z,9.47
2019-01-15T07:42:24.268Z,10.43
2019-01-15T07:44:53.395Z,9.57
2019-01-15T07:47:23.172Z,10.17
2019-01-15T07:49:52.914Z,10.37
2019-01-15T07:52:22.434Z,8.63
2019-01-15T07:54:52.354Z,9.00
2019-01-15T07:57:21.542Z,7.93
2019-01-15T07:59:51.503Z,8.93
2019-01-15T08:02:21.317Z,9.33
2019-01-15T08:04:50.360Z,9.10
2019-01-15T08:07:19.420Z,7.73
2019-01-15T08:09:48.463Z,8.57
2019-01-15T08:12:18.005Z,8.57
2019-01-15T08:14:47.032Z,9.40
2019-01-15T08:17:17.167Z,8.37
2019-01-15T08:19:46.286Z,8.80
2019-01-15T08:22:15.318Z,8.53
2019-01-15T08:24:44.467Z,8.27
2019-01-15T08:27:15.842Z,8.20
2019-01-15T08:29:44.877Z,7.87
2019-01-15T08:32:14.557Z,6.13
2019-01-15T08:34:43.602Z,7.73
2019-01-15T08:37:12.913Z,6.60
2019-01-15T08:39:43.793Z,6.03
2019-01-15T08:42:12.912Z,6.07
2019-01-15T08:44:42.116Z,6.03
2019-01-15T08:47:11.583Z,5.40
2019-01-15T08:49:40.674Z,5.67
2019-01-15T08:52:11.760Z,6.60
2019-01-15T08:54:43.830Z,4.90
2019-01-15T08:57:12.875Z,5.77
2019-01-15T08:59:42.270Z,5.17
2019-01-15T09:02:11.350Z,5.50
2019-01-15T09:04:40.402Z,5.27
2019-01-15T09:07:10.292Z,5.60
2019-01-15T09:09:40.731Z,5.13
2019-01-15T09:12:10.294Z,5.23
2019-01-15T09:14:39.306Z,4.47
2019-01-15T09:17:11.718Z,5.27
2019-01-15T09:19:41.075Z,5.17
2019-01-15T09:22:13.139Z,6.40
2019-01-15T09:24:42.221Z,7.00
2019-01-15T09:27:11.330Z,5.60
2019-01-15T09:29:41.382Z,5.07
2019-01-15T09:32:10.737Z,5.40
2019-01-15T09:34:40.074Z,6.50
2019-01-15T09:37:11.418Z,5.97
2019-01-15T09:39:40.530Z,5.63
2019-01-15T09:42:11.393Z,5.10
2019-01-15T09:44:41.323Z,5.60
2019-01-15T09:47:10.372Z,5.87
2019-01-15T09:49:39.551Z,6.43
2019-01-15T09:52:12.987Z,5.50
2019-01-15T09:54:43.565Z,6.40
2019-01-15T09:57:12.988Z,5.60
2019-01-15T09:59:42.094Z,6.13
2019-01-15T10:02:11.372Z,5.67
2019-01-15T10:04:41.210Z,6.60
2019-01-15T10:07:10.694Z,6.37
2019-01-15T10:09:41.020Z,5.70
2019-01-15T10:12:10.625Z,6.07
2019-01-15T10:14:41.472Z,6.13
2019-01-15T10:17:11.079Z,6.93
2019-01-15T10:19:41.959Z,6.73
2019-01-15T10:22:23.838Z,6.27
2019-01-15T10:24:55.095Z,6.17
2019-01-15T10:27:24.922Z,8.30
2019-01-15T10:29:59.258Z,6.30
2019-01-15T10:32:52.660Z,7.03
2019-01-15T10:35:49.732Z,7.30
2019-01-15T10:38:19.541Z,6.93
2019-01-15T10:40:49.055Z,7.77
2019-01-15T10:43:19.045Z,7.37
2019-01-15T10:45:54.261Z,7.53
2019-01-15T10:48:27.862Z,6.23
2019-01-15T10:50:58.430Z,7.13
2019-01-15T10:53:28.094Z,8.00
2019-01-15T10:55:57.644Z,7.53
2019-01-15T10:58:29.447Z,7.73
2019-01-15T11:00:59.512Z,7.07
2019-01-15T11:03:29.173Z,7.17
2019-01-15T11:05:58.738Z,7.37
2019-01-15T11:08:28.262Z,7.67
2019-01-15T11:11:02.107Z,6.90
2019-01-15T11:13:31.167Z,7.43
2019-01-15T11:16:00.751Z,7.73
2019-01-15T11:18:32.971Z,8.00
2019-01-15T11:21:03.307Z,10.73
2019-01-15T11:23:32.429Z,8.00
2019-01-15T11:26:02.367Z,7.93
2019-01-15T11:28:35.953Z,7.80
2019-01-15T11:31:05.846Z,7.03
2019-01-15T11:33:40.814Z,6.53
2019-01-15T11:36:13.676Z,6.73
2019-01-15T11:38:43.968Z,6.43
2019-01-15T11:41:14.103Z,6.73
2019-01-15T11:43:43.227Z,6.90
2019-01-15T11:46:13.353Z,6.77
2019-01-15T11:48:47.835Z,7.83
2019-01-15T11:51:20.084Z,6.90
2019-01-15T11:53:51.765Z,6.77
2019-01-15T11:56:21.113Z,6.10
2019-01-15T11:58:54.952Z,6.90
2019-01-15T12:01:50.015Z,7.50
2019-01-15T12:05:11.813Z,7.40
2019-01-15T12:08:17.838Z,7.30
2019-01-15T12:11:08.999Z,7.03
2019-01-15T12:13:55.667Z,7.80
2019-01-15T12:16:49.923Z,6.93
2019-01-15T12:22:47.365Z,6.10
2019-01-15T12:25:31.976Z,8.17
2019-01-15T12:28:30.160Z,8.07
2019-01-15T12:31:22.602Z,6.40
2019-01-15T12:34:16.750Z,7.50
2019-01-15T12:37:04.769Z,6.93
2019-01-15T12:40:10.057Z,6.70
2019-01-15T12:42:58.499Z,9.00
2019-01-15T12:45:48.904Z,7.30
2019-01-15T12:48:38.479Z,6.30
2019-01-15T12:51:32.427Z,7.90
2019-01-15T12:54:20.599Z,6.03
2019-01-15T12:57:09.067Z,7.17
2019-01-15T12:59:56.795Z,6.90
2019-01-15T13:02:47.573Z,6.37
2019-01-15T13:05:48.597Z,6.50
2019-01-15T13:08:36.588Z,5.80
2019-01-15T13:11:17.987Z,6.77
2019-01-15T13:14:08.278Z,6.50
2019-01-15T13:16:57.098Z,6.27
2019-01-15T13:19:40.938Z,5.37
2019-01-15T13:22:28.628Z,8.07
2019-01-15T13:25:16.263Z,6.60
2019-01-15T13:28:03.668Z,5.67
2019-01-15T13:30:56.583Z,7.40
2019-01-15T13:33:56.001Z,5.67
2019-01-15T13:36:54.674Z,6.27
2019-01-15T13:39:53.971Z,4.93
2019-01-15T13:42:50.317Z,4.60
2019-01-15T13:45:50.619Z,5.07
2019-01-15T13:48:31.018Z,6.80
2019-01-15T13:51:20.546Z,4.97
2019-01-15T13:54:32.084Z,5.07
2019-01-15T13:57:19.589Z,6.30
2019-01-15T14:00:20.371Z,5.90
2019-01-15T14:02:56.837Z,5.37
2019-01-15T14:05:45.807Z,6.53
2019-01-15T14:08:34.165Z,4.57
2019-01-15T14:11:25.415Z,5.23
2019-01-15T14:14:16.607Z,5.57
2019-01-15T14:17:14.614Z,6.33
2019-01-15T14:20:05.263Z,6.37
2019-01-15T14:22:57.628Z,5.93
2019-01-15T14:26:04.400Z,4.30
2019-01-15T14:29:07.730Z,5.50
2019-01-15T14:31:48.807Z,5.40
2019-01-15T14:34:39.621Z,4.43
2019-01-15T14:37:33.830Z,5.13
2019-01-15T14:43:09.595Z,5.33
2019-01-15T14:46:00.260Z,4.57
2019-01-15T14:48:46.289Z,6.23
2019-01-15T14:51:53.516Z,6.10
2019-01-15T14:54:32.595Z,4.70
2019-01-15T14:57:27.133Z,4.17
2019-01-15T15:00:26.319Z,4.27
2019-01-15T15:03:26.977Z,3.93
2019-01-15T15:06:28.481Z,4.77
2019-01-15T15:09:15.951Z,4.90
2019-01-15T15:12:23.116Z,4.93
2019-01-15T15:15:11.447Z,4.93
2019-01-15T15:17:53.452Z,4.83
2019-01-15T15:20:41.585Z,4.87
2019-01-15T15:23:31.188Z,3.90
2019-01-15T15:26:22.777Z,5.00
2019-01-15T15:29:09.863Z,5.23
2019-01-15T15:32:05.865Z,4.83
2019-01-15T15:34:46.696Z,5.33
2019-01-15T15:37:38.812Z,5.47
2019-01-15T15:40:21.204Z,5.03
2019-01-15T15:43:04.963Z,6.23
2019-01-15T15:46:11.436Z,5.67
2019-01-15T15:49:02.001Z,5.40
2019-01-15T15:51:52.251Z,5.50
2019-01-15T15:54:34.152Z,5.37
2019-01-15T15:57:42.766Z,4.97
2019-01-15T16:00:31.812Z,4.83
2019-01-15T16:03:29.005Z,4.57
2019-01-15T16:06:17.262Z,4.40
2019-01-15T16:09:04.571Z,5.50
2019-01-15T16:11:52.593Z,6.37
2019-01-15T16:14:30.337Z,5.47
2019-01-15T16:17:17.207Z,6.70
2019-01-15T16:20:02.035Z,4.87
2019-01-15T16:22:53.225Z,6.03
2019-01-15T16:25:47.472Z,5.60
2019-01-15T16:28:34.591Z,6.03
2019-01-15T16:31:25.608Z,5.00
2019-01-15T16:34:13.170Z,6.77
2019-01-15T16:37:00.100Z,5.33
2019-01-15T16:39:54.287Z,6.70
2019-01-15T16:42:41.438Z,5.60
2019-01-15T16:45:34.614Z,5.23
2019-01-15T16:48:26.062Z,4.60
2019-01-15T16:51:14.180Z,6.20
2019-01-15T16:54:01.085Z,6.17
2019-01-15T16:56:48.620Z,6.30
2019-01-15T16:59:38.644Z,6.37
2019-01-15T17:02:32.836Z,6.10
2019-01-15T17:05:12.062Z,6.63
2019-01-15T17:07:59.162Z,6.53
2019-01-15T17:10:47.582Z,5.97
2019-01-15T17:13:35.673Z,6.43
2019-01-15T17:16:34.111Z,7.40
2019-01-15T17:19:27.164Z,6.87
2019-01-15T17:22:21.048Z,6.53
2019-01-15T17:25:14.319Z,6.40
2019-01-15T17:28:01.030Z,6.60
2019-01-15T17:30:51.251Z,6.10
2019-01-15T17:33:42.289Z,5.90
2019-01-15T17:36:33.262Z,6.07
2019-01-15T17:39:24.443Z,5.70
2019-01-15T17:42:18.852Z,5.23
2019-01-15T17:45:13.151Z,5.20
2019-01-15T17:48:00.214Z,5.00
2019-01-15T17:50:47.337Z,5.70
2019-01-15T17:53:34.283Z,5.80
2019-01-15T17:56:21.083Z,5.17
2019-01-15T17:59:17.860Z,4.57
2019-01-15T18:02:05.975Z,3.73
2019-01-15T18:05:00.247Z,4.00
2019-01-15T18:07:50.158Z,4.33
2019-01-15T18:10:40.099Z,3.80
2019-01-15T18:13:31.535Z,4.17
2019-01-15T18:16:23.111Z,3.60
2019-01-15T18:19:05.298Z,4.23
2019-01-15T18:21:52.824Z,3.73
2019-01-15T18:25:00.022Z,3.93
2019-01-15T18:27:47.332Z,3.70
2019-01-15T18:30:54.907Z,3.20
2019-01-15T18:33:42.003Z,3.67
2019-01-15T18:36:22.721Z,4.23
2019-01-15T18:39:11.298Z,3.40
2019-01-15T18:42:09.910Z,4.10
2019-01-15T18:44:58.504Z,4.00
2019-01-15T18:47:46.965Z,3.90
2019-01-15T18:50:35.613Z,4.50
2019-01-15T18:53:24.012Z,4.17
2019-01-15T18:56:14.983Z,4.47
2019-01-15T18:59:09.007Z,4.47
2019-01-15T19:01:57.542Z,5.07
2019-01-15T19:04:44.492Z,4.33
2019-01-15T19:07:31.524Z,4.97
2019-01-15T19:10:20.498Z,4.70
2019-01-15T19:13:00.026Z,5.20
2019-01-15T19:15:46.938Z,3.97
2019-01-15T19:18:46.939Z,4.97
2019-01-15T19:21:44.585Z,5.87
2019-01-15T19:24:32.049Z,4.77
2019-01-15T19:27:20.192Z,4.87
2019-01-15T19:30:15.078Z,4.77
2019-01-15T19:33:02.511Z,4.80
2019-01-15T19:35:49.939Z,3.60
2019-01-15T19:38:47.832Z,5.10
2019-01-15T19:41:36.546Z,5.90
2019-01-15T19:44:23.858Z,5.07
2019-01-15T19:47:10.650Z,4.97
2019-01-15T19:49:53.902Z,4.67
2019-01-15T19:52:45.691Z,5.20
2019-01-15T19:55:31.502Z,5.17
2019-01-15T19:58:19.985Z,4.63
2019-01-15T20:01:11.675Z,4.47
2019-01-15T20:03:56.475Z,4.57
2019-01-15T20:06:44.038Z,4.70
2019-01-15T20:09:51.218Z,3.97
2019-01-15T20:12:41.417Z,4.43
2019-01-15T20:15:31.020Z,4.90
2019-01-15T20:18:14.180Z,4.63
2019-01-15T20:21:01.437Z,4.27
2019-01-15T20:23:39.854Z,4.03
2019-01-15T20:26:20.717Z,4.97
2019-01-15T20:29:20.826Z,4.80
2019-01-15T20:32:11.920Z,4.40
2019-01-15T20:35:12.865Z,4.50
2019-01-15T20:38:03.889Z,4.73
2019-01-15T20:40:51.813Z,4.63
2019-01-15T20:43:34.079Z,4.57
2019-01-15T20:46:26.092Z,4.47
2019-01-15T20:49:29.553Z,4.27
2019-01-15T20:52:26.853Z,4.40
2019-01-15T20:55:13.659Z,4.50
2019-01-15T20:58:05.546Z,4.57
2019-01-15T21:00:49.358Z,3.77
2019-01-15T21:03:37.674Z,3.60
2019-01-15T21:06:19.239Z,3.80
2019-01-15T21:08:59.236Z,3.60
2019-01-15T21:11:50.599Z,3.27
2019-01-15T21:14:37.653Z,2.80
2019-01-15T21:17:20.358Z,3.33
2019-01-15T21:20:00.611Z,3.13
2019-01-15T21:23:19.160Z,3.53
2019-01-15T21:26:13.217Z,3.87
2019-01-15T21:29:05.859Z,3.50
2019-01-15T21:32:09.315Z,3.50
2019-01-15T21:34:59.326Z,3.60
2019-01-15T21:37:57.207Z,3.30
2019-01-15T21:40:39.394Z,3.73
2019-01-15T21:43:33.302Z,3.70
2019-01-15T21:46:24.258Z,3.43
2019-01-15T21:49:12.422Z,3.27
2019-01-15T21:52:09.633Z,3.90
2019-01-15T21:55:04.093Z,3.83
2019-01-15T21:57:46.229Z,3.43
2019-01-15T22:00:30.725Z,3.87
2019-01-15T22:03:16.818Z,3.93
2019-01-15T22:06:12.411Z,3.33
2019-01-15T22:09:13.175Z,3.30
2019-01-15T22:11:59.210Z,4.00
2019-01-15T22:14:50.435Z,3.07
2019-01-15T22:17:31.376Z,3.47
2019-01-15T22:20:19.736Z,3.57
2019-01-15T22:23:06.879Z,3.73
2019-01-15T22:25:55.769Z,4.33
2019-01-15T22:28:43.865Z,3.60
2019-01-15T22:31:21.906Z,3.57
2019-01-15T22:34:06.668Z,3.50
2019-01-15T22:37:01.098Z,3.17
2019-01-15T22:39:52.492Z,3.80
2019-01-15T22:42:39.365Z,3.97
2019-01-15T22:45:37.049Z,4.07
2019-01-15T22:48:25.134Z,3.33
2019-01-15T22:51:31.738Z,3.37
2019-01-15T22:54:18.514Z,3.53
2019-01-15T22:57:08.685Z,3.77
2019-01-15T22:59:58.383Z,3.47
2019-01-15T23:02:47.689Z,3.77
2019-01-15T23:05:32.919Z,3.17
2019-01-15T23:08:21.130Z,3.40
2019-01-15T23:11:05.307Z,3.77
2019-01-15T23:13:44.297Z,3.60
2019-01-15T23:16:31.678Z,3.73
2019-01-15T23:19:12.022Z,3.10
2019-01-15T23:21:47.278Z,3.57
2019-01-15T23:24:34.193Z,2.77
2019-01-15T23:27:19.270Z,3.30
2019-01-15T23:30:13.278Z,3.20
2019-01-15T23:32:52.947Z,3.23
2019-01-15T23:35:35.059Z,3.90
2019-01-15T23:38:23.798Z,3.00
2019-01-15T23:41:14.719Z,2.97
2019-01-15T23:43:55.793Z,3.63
2019-01-15T23:46:34.773Z,3.17
2019-01-15T23:49:23.917Z,4.93
2019-01-15T23:52:18.875Z,3.80
2019-01-15T23:55:15.051Z,3.67
2019-01-15T23:57:56.573Z,3.83
